createdAt,value
2023-02-11T00:01:35.453Z,1.28
2023-02-11T00:05:37.145Z,1.24
2023-02-11T00:09:38.605Z,1.32
2023-02-11T00:13:40.291Z,1.45
2023-02-11T00:17:41.746Z,1.51
2023-02-11T00:21:43.223Z,1.46
2023-02-11T00:25:45.640Z,1.53
2023-02-11T00:29:47.126Z,1.50
2023-02-11T00:33:48.904Z,1.42
2023-02-11T00:37:52.632Z,1.51
2023-02-11T00:41:54.104Z,1.37
2023-02-11T00:45:55.574Z,1.46
2023-02-11T00:49:57.070Z,1.41
2023-02-11T00:53:58.554Z,1.49
2023-02-11T00:58:00.113Z,1.45
2023-02-11T01:02:01.643Z,1.57
2023-02-11T01:06:03.493Z,1.57
2023-02-11T01:10:05.383Z,1.29
2023-02-11T01:14:06.904Z,1.50
2023-02-11T01:18:08.333Z,1.35
2023-02-11T01:22:09.867Z,1.32
2023-02-11T01:26:11.410Z,1.38
2023-02-11T01:30:14.107Z,1.47
2023-02-11T01:34:16.158Z,1.40
2023-02-11T01:38:23.605Z,1.48
2023-02-11T01:42:25.124Z,1.55
2023-02-11T01:46:29.671Z,1.52
2023-02-11T01:50:31.647Z,1.49
2023-02-11T01:54:55.359Z,1.58
2023-02-11T01:59:03.846Z,1.60
2023-02-11T02:03:10.226Z,1.71
2023-02-11T02:07:19.802Z,1.80
2023-02-11T02:11:21.293Z,1.94
2023-02-11T02:15:34.502Z,1.71
2023-02-11T02:20:19.986Z,1.91
2023-02-11T02:24:39.701Z,1.77
2023-02-11T02:29:19.587Z,1.93
2023-02-11T02:33:25.376Z,2.08
2023-02-11T02:37:29.534Z,2.24
2023-02-11T02:41:34.286Z,2.32
2023-02-11T02:45:35.692Z,2.25
2023-02-11T02:49:37.089Z,2.16
2023-02-11T02:53:54.181Z,2.00
2023-02-11T02:58:10.468Z,2.07
2023-02-11T03:02:24.811Z,2.00
2023-02-11T03:06:48.333Z,2.00
2023-02-11T03:10:53.102Z,1.99
2023-02-11T03:14:54.588Z,2.05
2023-02-11T03:19:21.407Z,2.19
2023-02-11T03:23:35.169Z,2.21
2023-02-11T03:27:53.012Z,2.20
2023-02-11T03:32:00.572Z,2.24
2023-02-11T03:36:15.099Z,2.42
2023-02-11T03:40:23.652Z,2.32
2023-02-11T03:44:28.612Z,2.49
2023-02-11T03:48:34.883Z,2.55
2023-02-11T03:52:38.087Z,2.43
2023-02-11T03:56:51.115Z,2.50
2023-02-11T04:00:52.739Z,2.58
2023-02-11T04:04:54.315Z,2.54
2023-02-11T04:08:56.200Z,2.61
2023-02-11T04:12:57.658Z,2.66
2023-02-11T04:16:59.085Z,2.60
2023-02-11T04:21:00.601Z,2.55
2023-02-11T04:25:02.230Z,2.78
2023-02-11T04:29:03.724Z,2.58
2023-02-11T04:33:05.165Z,2.78
2023-02-11T04:37:06.754Z,2.82
2023-02-11T04:41:08.288Z,2.82
2023-02-11T04:45:09.830Z,2.95
2023-02-11T04:49:13.920Z,3.13
2023-02-11T04:53:15.363Z,3.10
2023-02-11T04:57:17.076Z,3.05
2023-02-11T05:01:18.652Z,3.13
2023-02-11T05:05:20.116Z,3.22
2023-02-11T05:09:21.728Z,3.27
2023-02-11T05:13:23.335Z,3.24
2023-02-11T05:17:24.831Z,3.20
2023-02-11T05:21:26.461Z,3.21
2023-02-11T05:25:27.856Z,3.04
2023-02-11T05:29:29.444Z,3.16
2023-02-11T05:33:31.006Z,3.17
2023-02-11T05:37:32.486Z,3.22
2023-02-11T05:41:33.989Z,3.25
2023-02-11T05:45:35.515Z,3.21
2023-02-11T05:49:36.974Z,3.27
2023-02-11T05:53:38.427Z,3.25
2023-02-11T05:57:39.901Z,3.26
2023-02-11T06:01:41.621Z,3.14
2023-02-11T06:05:44.888Z,3.23
2023-02-11T06:09:46.431Z,3.21
2023-02-11T06:13:47.855Z,3.38
2023-02-11T06:17:49.318Z,3.32
2023-02-11T06:21:50.740Z,3.58
2023-02-11T06:25:53.297Z,3.56
2023-02-11T06:29:56.999Z,3.63
2023-02-11T06:33:59.238Z,3.44
2023-02-11T06:38:01.362Z,3.56
2023-02-11T06:42:02.862Z,3.49
2023-02-11T06:46:04.562Z,3.45
2023-02-11T06:50:08.736Z,3.53
2023-02-11T06:54:12.175Z,3.44
2023-02-11T06:58:13.742Z,3.48
2023-02-11T07:02:15.213Z,3.55
2023-02-11T07:06:20.508Z,3.52
2023-02-11T07:10:21.982Z,3.68
2023-02-11T07:14:23.482Z,3.64
2023-02-11T07:18:24.935Z,3.51
2023-02-11T07:22:26.519Z,3.58
2023-02-11T07:26:29.063Z,3.74
2023-02-11T07:30:30.486Z,3.74
2023-02-11T07:34:32.157Z,3.80
2023-02-11T07:38:35.052Z,3.76
2023-02-11T07:42:36.856Z,3.93
2023-02-11T07:46:42.863Z,3.95
2023-02-11T07:50:44.434Z,4.07
2023-02-11T07:54:46.132Z,4.19
2023-02-11T07:58:47.996Z,4.21
2023-02-11T08:02:49.463Z,4.33
2023-02-11T08:06:52.782Z,4.37
2023-02-11T08:10:54.342Z,4.46
2023-02-11T08:14:56.302Z,4.47
2023-02-11T08:19:00.542Z,4.60
2023-02-11T08:23:02.157Z,4.75
2023-02-11T08:27:03.714Z,4.70
2023-02-11T08:31:15.852Z,4.86
2023-02-11T08:35:17.476Z,4.86
2023-02-11T08:39:22.596Z,5.33
2023-02-11T08:43:25.226Z,4.92
2023-02-11T08:47:26.949Z,4.94
2023-02-11T08:51:31.464Z,4.87
2023-02-11T08:55:32.913Z,4.82
2023-02-11T08:59:34.616Z,4.82
2023-02-11T09:03:36.097Z,4.78
2023-02-11T09:07:37.569Z,4.85
2023-02-11T09:11:40.654Z,4.78
2023-02-11T09:15:45.349Z,4.80
2023-02-11T09:19:46.822Z,4.82
2023-02-11T09:23:48.683Z,4.83
2023-02-11T09:27:51.297Z,4.90
2023-02-11T09:31:52.910Z,4.97
2023-02-11T09:35:54.448Z,5.13
2023-02-11T09:39:55.907Z,5.70
2023-02-11T09:43:59.668Z,5.10
2023-02-11T09:48:27.506Z,5.24
2023-02-11T09:52:41.662Z,5.13
2023-02-11T09:56:43.164Z,5.28
2023-02-11T10:01:06.798Z,5.35
2023-02-11T10:05:29.604Z,5.36
2023-02-11T10:09:49.733Z,5.24
2023-02-11T10:14:03.198Z,5.38
2023-02-11T10:18:34.370Z,5.30
2023-02-11T10:22:46.900Z,5.26
2023-02-11T10:26:49.036Z,5.38
2023-02-11T10:31:15.775Z,5.17
2023-02-11T10:35:21.629Z,5.27
2023-02-11T10:39:26.315Z,5.24
2023-02-11T10:43:30.747Z,5.14
2023-02-11T10:47:37.683Z,5.18
2023-02-11T10:51:39.140Z,5.13
2023-02-11T10:55:50.689Z,5.23
2023-02-11T10:59:59.122Z,5.16
2023-02-11T11:04:00.708Z,5.31
2023-02-11T11:08:05.897Z,5.22
2023-02-11T11:12:25.088Z,5.35
2023-02-11T11:16:29.459Z,5.29
2023-02-11T11:20:36.115Z,5.33
2023-02-11T11:24:46.518Z,5.15
2023-02-11T11:29:16.148Z,5.24
2023-02-11T11:33:24.985Z,5.13
2023-02-11T11:37:30.107Z,5.17
2023-02-11T11:41:34.004Z,5.23
2023-02-11T11:45:35.954Z,5.14
2023-02-11T11:50:11.975Z,5.26
2023-02-11T11:54:17.581Z,5.20
2023-02-11T11:58:22.048Z,5.27
2023-02-11T12:02:59.944Z,5.29
2023-02-11T12:07:25.883Z,5.32
2023-02-11T12:11:44.568Z,5.29
2023-02-11T12:15:56.163Z,5.37
2023-02-11T12:20:17.953Z,5.41
2023-02-11T12:24:27.428Z,5.50
2023-02-11T12:28:34.919Z,5.54
2023-02-11T12:33:05.362Z,5.51
2023-02-11T12:37:19.914Z,5.64
2023-02-11T12:42:12.134Z,5.54
2023-02-11T12:46:31.506Z,5.60
2023-02-11T12:51:00.647Z,5.72
2023-02-11T12:55:19.181Z,5.73
2023-02-11T12:59:29.699Z,5.81
2023-02-11T13:03:44.549Z,5.93
2023-02-11T13:07:47.597Z,6.03
2023-02-11T13:11:53.607Z,6.04
2023-02-11T13:16:09.893Z,6.11
2023-02-11T13:20:33.325Z,5.99
2023-02-11T13:24:49.290Z,6.07
2023-02-11T13:29:17.438Z,5.92
2023-02-11T13:33:30.064Z,6.13
2023-02-11T13:37:38.934Z,6.07
2023-02-11T13:41:41.703Z,6.34
2023-02-11T13:45:46.652Z,6.38
2023-02-11T13:49:53.365Z,6.10
2023-02-11T13:53:57.565Z,6.27
2023-02-11T13:58:28.119Z,6.19
2023-02-11T14:02:52.748Z,6.18
2023-02-11T14:07:47.143Z,6.18
2023-02-11T14:11:56.189Z,6.12
2023-02-11T14:16:08.487Z,6.10
2023-02-11T14:20:36.891Z,6.11
2023-02-11T14:24:38.345Z,6.03
2023-02-11T14:28:44.704Z,6.13
2023-02-11T14:32:58.285Z,5.99
2023-02-11T14:37:08.919Z,6.12
2023-02-11T14:41:22.883Z,6.10
2023-02-11T14:45:28.752Z,6.12
2023-02-11T14:49:40.221Z,6.11
2023-02-11T14:53:48.424Z,6.02
2023-02-11T14:58:11.948Z,6.16
2023-02-11T15:02:26.127Z,6.04
2023-02-11T15:06:40.943Z,6.06
2023-02-11T15:10:44.561Z,6.09
2023-02-11T15:14:49.095Z,6.15
2023-02-11T15:18:56.509Z,6.32
2023-02-11T15:23:04.833Z,6.01
2023-02-11T15:27:12.699Z,6.04
2023-02-11T15:31:16.768Z,6.02
2023-02-11T15:35:18.897Z,6.06
2023-02-11T15:39:32.451Z,6.08
2023-02-11T15:43:44.478Z,6.12
2023-02-11T15:47:53.328Z,6.04
2023-02-11T15:51:57.079Z,6.26
2023-02-11T15:56:25.344Z,6.07
2023-02-11T16:00:35.694Z,6.19
2023-02-11T16:04:37.772Z,6.15
2023-02-11T16:08:41.534Z,6.33
2023-02-11T16:12:54.529Z,6.08
2023-02-11T16:17:12.028Z,6.28
2023-02-11T16:21:18.756Z,6.15
2023-02-11T16:25:22.126Z,6.21
2023-02-11T16:29:27.212Z,6.27
2023-02-11T16:33:28.867Z,6.21
2023-02-11T16:37:30.388Z,6.14
2023-02-11T16:41:31.885Z,6.14
2023-02-11T16:45:38.449Z,6.15
2023-02-11T16:49:41.712Z,6.26
2023-02-11T16:53:43.162Z,6.48
2023-02-11T16:57:44.697Z,6.29
2023-02-11T17:01:47.442Z,6.28
2023-02-11T17:05:58.097Z,6.26
2023-02-11T17:09:59.773Z,6.28
2023-02-11T17:14:01.195Z,6.32
2023-02-11T17:18:02.973Z,6.32
2023-02-11T17:22:04.914Z,6.41
2023-02-11T17:26:07.190Z,6.48
2023-02-11T17:30:10.231Z,6.43
2023-02-11T17:34:12.041Z,6.42
2023-02-11T17:38:13.498Z,6.45
2023-02-11T17:42:15.080Z,6.35
2023-02-11T17:46:17.214Z,6.55
2023-02-11T17:50:18.873Z,6.52
2023-02-11T17:54:20.850Z,6.66
2023-02-11T17:58:23.025Z,6.56
2023-02-11T18:02:24.582Z,6.67
2023-02-11T18:06:26.289Z,6.60
2023-02-11T18:10:27.792Z,6.44
2023-02-11T18:14:29.284Z,6.62
2023-02-11T18:18:31.296Z,6.55
2023-02-11T18:22:38.440Z,6.61
2023-02-11T18:26:40.190Z,6.62
2023-02-11T18:30:41.680Z,6.70
2023-02-11T18:34:43.579Z,6.67
2023-02-11T18:38:45.198Z,6.67
2023-02-11T18:42:46.823Z,6.70
2023-02-11T18:46:48.330Z,6.75
2023-02-11T18:50:49.848Z,6.54
2023-02-11T18:54:52.231Z,6.70
2023-02-11T18:58:56.085Z,6.77
2023-02-11T19:02:58.520Z,6.73
2023-02-11T19:07:03.149Z,6.80
2023-02-11T19:11:05.055Z,6.72
2023-02-11T19:15:07.760Z,6.73
2023-02-11T19:19:09.548Z,6.86
2023-02-11T19:23:11.247Z,6.74
2023-02-11T19:27:12.802Z,6.80
2023-02-11T19:31:14.623Z,6.74
2023-02-11T19:35:16.268Z,6.53
2023-02-11T19:39:18.480Z,6.77
2023-02-11T19:43:19.921Z,6.79
2023-02-11T19:47:27.563Z,6.78
2023-02-11T19:51:30.090Z,6.65
2023-02-11T19:55:34.641Z,6.76
2023-02-11T19:59:36.148Z,6.79
2023-02-11T20:03:39.722Z,6.93
2023-02-11T20:07:42.890Z,6.79
2023-02-11T20:11:44.540Z,6.67
2023-02-11T20:15:45.972Z,6.67
2023-02-11T20:19:47.430Z,6.59
2023-02-11T20:23:50.022Z,6.68
2023-02-11T20:27:51.482Z,6.64
2023-02-11T20:31:54.088Z,6.57
2023-02-11T20:36:01.642Z,6.51
2023-02-11T20:40:03.393Z,6.66
2023-02-11T20:44:07.466Z,6.59
2023-02-11T20:48:08.909Z,6.48
2023-02-11T20:52:10.533Z,6.61
2023-02-11T20:56:12.385Z,6.40
2023-02-11T21:00:14.120Z,6.49
2023-02-11T21:04:21.820Z,6.36
2023-02-11T21:08:23.249Z,6.35
2023-02-11T21:12:24.680Z,6.38
2023-02-11T21:16:26.665Z,6.48
2023-02-11T21:20:28.193Z,6.31
2023-02-11T21:24:30.943Z,6.79
2023-02-11T21:28:32.849Z,6.73
2023-02-11T21:32:34.355Z,6.47
2023-02-11T21:36:35.823Z,6.41
2023-02-11T21:40:37.713Z,6.36
2023-02-11T21:44:39.211Z,6.44
2023-02-11T21:48:41.035Z,6.17
2023-02-11T21:52:42.672Z,6.41
2023-02-11T21:56:44.533Z,6.65
2023-02-11T22:00:46.018Z,6.64
2023-02-11T22:04:47.530Z,6.82
2023-02-11T22:08:50.391Z,6.31
2023-02-11T22:12:51.871Z,6.67
2023-02-11T22:16:53.324Z,6.49
2023-02-11T22:21:03.305Z,6.51
2023-02-11T22:25:04.964Z,6.48
2023-02-11T22:29:06.515Z,6.59
2023-02-11T22:33:07.902Z,6.57
2023-02-11T22:37:09.322Z,6.56
2023-02-11T22:41:11.745Z,6.55
2023-02-11T22:45:13.212Z,6.38
2023-02-11T22:49:16.320Z,6.37
2023-02-11T22:53:17.722Z,6.37
2023-02-11T22:57:19.109Z,6.52
2023-02-11T23:01:20.767Z,6.18
2023-02-11T23:05:22.241Z,6.24
2023-02-11T23:09:23.647Z,6.22
2023-02-11T23:13:25.061Z,6.36
2023-02-11T23:17:28.821Z,6.38
2023-02-11T23:21:32.848Z,6.26
2023-02-11T23:25:34.873Z,6.15
2023-02-11T23:29:36.328Z,6.19
2023-02-11T23:33:37.744Z,6.28
2023-02-11T23:37:39.179Z,6.21
2023-02-11T23:41:40.642Z,5.95
2023-02-11T23:45:42.032Z,6.27
2023-02-11T23:49:43.492Z,6.10
2023-02-11T23:53:49.239Z,6.09
2023-02-11T23:57:50.669Z,6.16
